Time;durP1;ratioP1;P1;durP2;ratioP2;P2;SDS_P1;SDS_P2;PMS_P1;PMS_P2;Temp;Humidity;BMP_temperature;BMP_pressure;BME280_temperature;BME280_humidity;BME280_pressure;Samples;Min_cycle;Max_cycle;Signal;HPM_P1;HPM_P2
2024/01/23 00:00:37;;;;;;;19.63;3.78;;;6.50;99.90;;;;;;4868734;29;20128;-46
2024/01/23 00:03:03;;;;;;;18.60;4.20;;;6.60;99.90;;;;;;4864016;29;20555;-47
2024/01/23 00:05:28;;;;;;;23.52;4.43;;;6.60;99.90;;;;;;4862752;29;20053;-48
2024/01/23 00:07:54;;;;;;;22.60;4.30;;;6.60;99.90;;;;;;4873796;29;20072;-46
2024/01/23 00:10:22;;;;;;;19.98;4.00;;;6.70;99.90;;;;;;4852392;29;20072;-46
2024/01/23 00:12:48;;;;;;;18.05;4.35;;;6.70;99.90;;;;;;4869556;29;20050;-47
2024/01/23 00:15:14;;;;;;;25.00;4.28;;;6.70;99.90;;;;;;4874753;29;20045;-46
2024/01/23 00:17:40;;;;;;;17.50;4.00;;;6.70;99.90;;;;;;4868056;29;20460;-47
2024/01/23 00:20:07;;;;;;;19.80;3.40;;;6.70;99.90;;;;;;4864469;29;20057;-46
2024/01/23 00:22:33;;;;;;;16.73;3.67;;;6.70;99.90;;;;;;4857837;29;20045;-47
2024/01/23 00:24:59;;;;;;;21.35;3.50;;;6.70;99.90;;;;;;4873492;29;20045;-46
2024/01/23 00:27:25;;;;;;;23.27;3.90;;;6.80;99.90;;;;;;4856412;29;20049;-46
2024/01/23 00:29:51;;;;;;;23.10;3.38;;;6.80;99.90;;;;;;4868439;29;20092;-47
2024/01/23 00:32:16;;;;;;;19.17;4.05;;;6.80;99.90;;;;;;4868842;29;20487;-46
2024/01/23 00:34:42;;;;;;;21.90;4.22;;;6.80;99.90;;;;;;4874526;29;20424;-48
2024/01/23 00:37:08;;;;;;;19.30;3.80;;;6.70;99.90;;;;;;4867563;29;20037;-51
2024/01/23 00:39:37;;;;;;;16.33;4.20;;;6.70;99.90;;;;;;4871309;29;20060;-49
2024/01/23 00:42:06;;;;;;;18.55;4.00;;;6.50;99.90;;;;;;4869389;29;20049;-47
2024/01/23 00:44:31;;;;;;;23.65;3.22;;;6.50;99.90;;;;;;4866923;29;20049;-46
2024/01/23 00:46:57;;;;;;;14.48;2.92;;;6.50;99.90;;;;;;4865834;29;20049;-46
2024/01/23 00:49:22;;;;;;;18.52;3.67;;;6.50;99.90;;;;;;4873059;29;20601;-47
2024/01/23 00:51:48;;;;;;;19.10;2.97;;;6.40;99.90;;;;;;4869834;29;20041;-47
2024/01/23 00:54:14;;;;;;;16.17;3.10;;;6.40;99.90;;;;;;4863585;29;20061;-47
2024/01/23 00:56:41;;;;;;;18.75;2.97;;;6.40;99.90;;;;;;4867248;29;20567;-46
2024/01/23 00:59:09;;;;;;;15.52;2.85;;;6.50;99.90;;;;;;4867358;29;20120;-46
2024/01/23 01:01:35;;;;;;;17.37;3.73;;;6.50;99.90;;;;;;4866526;29;20078;-47
2024/01/23 01:04:02;;;;;;;18.13;3.40;;;6.60;99.90;;;;;;4866464;29;20060;-48
2024/01/23 01:06:27;;;;;;;12.90;2.90;;;6.60;99.90;;;;;;4866916;29;20060;-47
2024/01/23 01:08:53;;;;;;;19.48;3.78;;;6.60;99.90;;;;;;4870571;29;20045;-46
2024/01/23 01:11:19;;;;;;;14.75;3.25;;;6.60;99.90;;;;;;4867378;29;20045;-46
2024/01/23 01:13:44;;;;;;;14.23;3.30;;;6.60;99.90;;;;;;4867821;29;20555;-50
2024/01/23 01:16:10;;;;;;;13.93;2.78;;;6.60;99.90;;;;;;4867560;29;20049;-45
2024/01/23 01:18:36;;;;;;;15.35;3.30;;;6.50;99.90;;;;;;4869822;29;20036;-47
2024/01/23 01:21:02;;;;;;;13.48;3.05;;;6.50;99.90;;;;;;4872434;29;20045;-46
2024/01/23 01:23:28;;;;;;;14.57;3.15;;;6.50;99.90;;;;;;4871987;29;20510;-46
2024/01/23 01:25:54;;;;;;;17.67;2.83;;;6.40;99.90;;;;;;4871994;29;20119;-47
2024/01/23 01:28:19;;;;;;;23.02;3.35;;;6.40;99.90;;;;;;4874134;29;20052;-46
2024/01/23 01:30:45;;;;;;;19.38;3.70;;;6.30;99.90;;;;;;4872100;29;21864;-47
2024/01/23 01:33:11;;;;;;;22.13;4.50;;;6.30;99.90;;;;;;4871775;29;20044;-46
2024/01/23 01:35:37;;;;;;;16.55;3.42;;;6.40;99.90;;;;;;4876787;29;20050;-46
2024/01/23 01:38:02;;;;;;;17.02;3.53;;;6.40;99.90;;;;;;4877598;29;20041;-50
2024/01/23 01:40:28;;;;;;;15.30;3.42;;;6.40;99.90;;;;;;4876997;29;20049;-46
2024/01/23 01:42:54;;;;;;;17.10;3.60;;;6.50;99.90;;;;;;4877018;29;20037;-47
2024/01/23 01:45:19;;;;;;;19.00;3.72;;;6.60;99.90;;;;;;4877516;29;20032;-47
2024/01/23 01:47:47;;;;;;;17.58;3.53;;;6.60;99.90;;;;;;4877166;29;20044;-46
2024/01/23 01:50:13;;;;;;;15.77;3.70;;;6.60;99.90;;;;;;4877878;29;20045;-46
2024/01/23 01:52:41;;;;;;;17.00;3.47;;;6.60;99.90;;;;;;4863482;29;20057;-47
2024/01/23 01:55:07;;;;;;;;;;;6.60;99.90;;;;;;4873203;29;20759;-47
2024/01/23 01:57:39;;;;;;;23.50;4.18;;;6.60;99.90;;;;;;4873574;29;19934;-47
2024/01/23 02:00:06;;;;;;;20.50;3.35;;;6.70;99.90;;;;;;4874432;29;20500;-45
2024/01/23 02:02:32;;;;;;;20.65;3.53;;;6.60;99.90;;;;;;4872339;29;20048;-46
2024/01/23 02:04:59;;;;;;;18.93;3.17;;;6.50;99.90;;;;;;4870767;29;20136;-46
2024/01/23 02:07:25;;;;;;;15.25;3.55;;;6.50;99.90;;;;;;4871730;29;20415;-46
2024/01/23 02:09:51;;;;;;;17.40;3.67;;;6.50;99.90;;;;;;4869186;29;20045;-47
2024/01/23 02:12:16;;;;;;;14.95;4.22;;;6.50;99.90;;;;;;4866645;29;20037;-46
2024/01/23 02:14:42;;;;;;;18.42;3.58;;;6.50;99.90;;;;;;4868126;29;20071;-46
2024/01/23 02:17:08;;;;;;;16.55;4.05;;;6.40;99.90;;;;;;4871317;29;20041;-47
2024/01/23 02:19:33;;;;;;;21.95;4.97;;;6.40;99.90;;;;;;4850813;29;20045;-47
2024/01/23 02:21:59;;;;;;;15.38;3.65;;;6.40;99.90;;;;;;4868104;29;20136;-46
2024/01/23 02:24:25;;;;;;;15.88;3.40;;;6.40;99.90;;;;;;4870427;29;20043;-46
2024/01/23 02:26:51;;;;;;;22.00;4.15;;;6.30;99.90;;;;;;4870515;29;20037;-47
2024/01/23 02:29:16;;;;;;;17.38;3.47;;;6.30;99.90;;;;;;4871529;29;20139;-50
2024/01/23 02:31:42;;;;;;;15.63;3.70;;;6.20;99.90;;;;;;4868304;29;20083;-47
2024/01/23 02:34:08;;;;;;;22.67;3.97;;;6.20;99.90;;;;;;4866498;29;20045;-47
2024/01/23 02:36:39;;;;;;;17.13;3.72;;;6.10;99.90;;;;;;4869521;29;20326;-49
2024/01/23 02:39:05;;;;;;;21.92;4.10;;;6.00;99.90;;;;;;4876543;29;20072;-48
2024/01/23 02:41:31;;;;;;;20.30;3.25;;;6.00;99.90;;;;;;4874085;29;20420;-46
2024/01/23 02:43:57;;;;;;;12.80;3.05;;;;;;;;;;4867691;29;20079;-50
2024/01/23 02:46:23;;;;;;;18.30;3.15;;;;;;;;;;4869198;29;20048;-46
2024/01/23 02:48:49;;;;;;;19.17;4.28;;;6.00;99.90;;;;;;4871458;29;20052;-46
2024/01/23 02:51:21;;;;;;;18.90;4.10;;;5.90;99.90;;;;;;4858009;29;20079;-46
2024/01/23 02:53:47;;;;;;;17.45;3.47;;;5.80;99.90;;;;;;4877492;23;20075;-47
2024/01/23 02:56:13;;;;;;;22.45;3.65;;;5.80;99.90;;;;;;4878774;29;20053;-48
2024/01/23 02:58:39;;;;;;;18.25;3.67;;;5.80;99.90;;;;;;4921161;23;20052;-85
2024/01/23 03:01:05;;;;;;;16.95;3.80;;;5.80;99.90;;;;;;4886385;29;20450;-84
2024/01/23 03:03:31;;;;;;;21.00;4.20;;;5.70;99.90;;;;;;4919799;29;20086;-84
2024/01/23 03:05:56;;;;;;;21.90;4.15;;;5.70;99.90;;;;;;4897839;29;20139;-83
2024/01/23 03:08:23;;;;;;;18.92;3.58;;;5.70;99.90;;;;;;4915004;29;20119;-84
2024/01/23 03:10:49;;;;;;;23.45;4.30;;;5.70;99.90;;;;;;4904406;29;20526;-83
2024/01/23 03:13:15;;;;;;;20.85;3.75;;;5.80;99.90;;;;;;4923704;29;20388;-84
2024/01/23 03:15:41;;;;;;;18.55;3.97;;;5.70;99.90;;;;;;4900492;29;20093;-84
2024/01/23 03:18:07;;;;;;;18.70;3.53;;;5.70;99.90;;;;;;4918902;29;20048;-84
2024/01/23 03:20:33;;;;;;;22.65;4.55;;;5.70;99.90;;;;;;4904379;29;20138;-84
2024/01/23 03:22:59;;;;;;;23.70;3.95;;;5.70;99.90;;;;;;4897736;29;20071;-84
2024/01/23 03:25:25;;;;;;;19.67;4.55;;;5.80;99.90;;;;;;4898554;29;20072;-84
2024/01/23 03:27:51;;;;;;;20.05;3.80;;;5.80;99.90;;;;;;4897523;29;20525;-84
2024/01/23 03:30:32;;;;;;;21.08;4.20;;;5.80;99.90;;;;;;4907911;29;20077;-84
2024/01/23 03:32:58;;;;;;;17.75;3.83;;;5.80;99.90;;;;;;4894429;29;20487;-84
2024/01/23 03:35:24;;;;;;;20.25;3.78;;;5.80;99.90;;;;;;4897409;29;20521;-84
2024/01/23 03:37:51;;;;;;;18.42;3.50;;;5.90;99.90;;;;;;4910688;29;20068;-83
2024/01/23 03:40:17;;;;;;;23.88;3.83;;;6.00;99.90;;;;;;4908149;29;20135;-84
2024/01/23 03:42:43;;;;;;;21.35;3.88;;;6.10;99.90;;;;;;4912933;29;20123;-83
2024/01/23 03:45:09;;;;;;;23.45;3.85;;;6.10;99.90;;;;;;4915522;29;20032;-83
2024/01/23 03:47:35;;;;;;;19.25;3.75;;;6.10;99.90;;;;;;4914033;29;20048;-84
2024/01/23 03:50:01;;;;;;;18.38;3.83;;;6.10;99.90;;;;;;4914098;29;20044;-84
2024/01/23 03:52:26;;;;;;;26.38;3.97;;;6.20;99.90;;;;;;4912685;29;20123;-84
2024/01/23 03:54:53;;;;;;;21.92;4.35;;;6.20;99.90;;;;;;4916084;29;20175;-84
2024/01/23 03:57:19;;;;;;;19.85;3.78;;;6.20;99.90;;;;;;4905640;29;20059;-84
2024/01/23 03:59:45;;;;;;;20.35;4.55;;;6.30;99.90;;;;;;4905074;29;20056;-83
2024/01/23 04:02:11;;;;;;;29.23;4.07;;;6.30;99.90;;;;;;4904866;29;20055;-81
2024/01/23 04:04:38;;;;;;;21.40;4.47;;;6.30;99.90;;;;;;4905716;29;20398;-83
2024/01/23 04:07:04;;;;;;;24.75;4.35;;;6.40;99.90;;;;;;4909658;29;20522;-84
2024/01/23 04:09:29;;;;;;;21.73;4.18;;;6.40;99.90;;;;;;4908400;29;20075;-84
2024/01/23 04:11:56;;;;;;;25.52;4.22;;;6.30;99.90;;;;;;4911101;29;20071;-84
2024/01/23 04:14:22;;;;;;;26.83;3.83;;;6.40;99.90;;;;;;4910969;29;20142;-84
2024/01/23 04:16:48;;;;;;;24.27;4.60;;;6.40;99.90;;;;;;4913726;29;20451;-85
2024/01/23 04:19:13;;;;;;;18.90;3.95;;;6.40;99.90;;;;;;4898149;29;20052;-85
2024/01/23 04:21:40;;;;;;;23.05;5.00;;;6.40;99.90;;;;;;4911464;29;20048;-85
2024/01/23 04:24:06;;;;;;;23.17;4.22;;;6.40;99.90;;;;;;4910762;29;20044;-85
2024/01/23 04:26:32;;;;;;;23.55;4.40;;;6.40;99.90;;;;;;4911247;29;20052;-85
2024/01/23 04:28:57;;;;;;;18.80;4.03;;;6.40;99.90;;;;;;4911225;29;20044;-84
2024/01/23 04:31:24;;;;;;;25.20;4.65;;;6.40;99.90;;;;;;4912012;29;20032;-85
2024/01/23 04:33:50;;;;;;;21.52;4.03;;;6.50;99.90;;;;;;4909981;29;20079;-84
2024/01/23 04:36:19;;;;;;;26.52;5.28;;;6.50;99.90;;;;;;4921526;29;20028;-84
2024/01/23 04:38:45;;;;;;;21.75;4.30;;;6.50;99.90;;;;;;4920555;29;20048;-84
2024/01/23 04:41:11;;;;;;;26.30;4.38;;;6.50;99.90;;;;;;4921657;29;20478;-85
2024/01/23 04:43:37;;;;;;;23.02;4.47;;;6.50;99.90;;;;;;4900597;29;20040;-83
2024/01/23 04:46:03;;;;;;;22.80;4.65;;;6.50;99.90;;;;;;4917137;29;20108;-84
2024/01/23 04:48:29;;;;;;;19.70;3.55;;;6.40;99.90;;;;;;4920259;29;20043;-84
2024/01/23 04:50:54;;;;;;;25.17;4.35;;;6.50;99.90;;;;;;4914600;29;20071;-83
2024/01/23 04:53:20;;;;;;;24.50;4.28;;;6.50;99.90;;;;;;4915512;29;20384;-84
2024/01/23 04:55:46;;;;;;;22.65;4.43;;;6.50;99.90;;;;;;4914576;29;20111;-84
2024/01/23 04:58:11;;;;;;;20.08;4.10;;;6.50;99.90;;;;;;4882205;29;20407;-84
2024/01/23 05:00:37;;;;;;;21.13;3.63;;;6.50;99.90;;;;;;4903162;29;20044;-83
2024/01/23 05:03:03;;;;;;;22.92;3.88;;;6.50;99.90;;;;;;4916390;29;20181;-84
2024/01/23 05:05:31;;;;;;;27.27;4.25;;;6.50;99.90;;;;;;4900930;29;20048;-83
2024/01/23 05:07:56;;;;;;;25.27;4.95;;;6.50;99.90;;;;;;4881190;29;20127;-84
2024/01/23 05:10:25;;;;;;;23.80;4.32;;;6.50;99.90;;;;;;4890146;29;20178;-85
2024/01/23 05:12:50;;;;;;;25.40;4.53;;;6.50;99.90;;;;;;4914152;29;20040;-85
2024/01/23 05:15:16;;;;;;;27.02;4.63;;;6.60;99.90;;;;;;4905977;29;20513;-85
2024/01/23 05:17:42;;;;;;;22.55;4.53;;;6.60;99.90;;;;;;4923053;29;20055;-85
2024/01/23 05:20:08;;;;;;;20.70;3.80;;;6.50;99.90;;;;;;4901363;29;20313;-85
2024/01/23 05:22:34;;;;;;;24.02;4.50;;;6.50;99.90;;;;;;4921680;29;20072;-85
2024/01/23 05:25:00;;;;;;;29.67;4.75;;;6.40;99.90;;;;;;4915140;29;20127;-85
2024/01/23 05:27:26;;;;;;;17.40;3.60;;;6.50;99.90;;;;;;4918132;29;20463;-85
2024/01/23 05:29:52;;;;;;;18.55;4.57;;;6.50;99.90;;;;;;4921594;29;20119;-84
2024/01/23 05:32:18;;;;;;;24.73;4.03;;;6.50;99.90;;;;;;4921261;29;20075;-85
2024/01/23 05:34:43;;;;;;;26.52;4.28;;;6.60;99.90;;;;;;4911767;29;20052;-85
2024/01/23 05:37:10;;;;;;;26.92;4.60;;;6.50;99.90;;;;;;4894546;29;20047;-84
2024/01/23 05:39:39;;;;;;;28.20;4.33;;;6.50;99.90;;;;;;4884247;29;20051;-85
2024/01/23 05:42:06;;;;;;;23.50;5.13;;;6.60;99.90;;;;;;4910609;29;20052;-83
2024/01/23 05:44:32;;;;;;;22.63;4.53;;;6.60;99.90;;;;;;4918157;29;20554;-84
2024/01/23 05:46:58;;;;;;;30.83;5.32;;;6.60;99.90;;;;;;4899005;29;20123;-85
2024/01/23 05:49:24;;;;;;;19.35;4.25;;;6.60;99.90;;;;;;4913202;29;20056;-85
2024/01/23 05:51:49;;;;;;;27.92;4.47;;;6.60;99.90;;;;;;4876693;29;20073;-85
2024/01/23 05:54:15;;;;;;;29.50;5.50;;;6.70;99.90;;;;;;4895668;29;20168;-85
2024/01/23 05:56:40;;;;;;;28.92;4.55;;;6.70;99.90;;;;;;4911379;29;20554;-85
2024/01/23 05:59:06;;;;;;;22.38;4.75;;;6.60;99.90;;;;;;4882402;29;20044;-84
2024/01/23 06:01:32;;;;;;;25.02;5.00;;;6.60;99.90;;;;;;4920455;29;20048;-84
2024/01/23 06:03:58;;;;;;;29.88;5.35;;;6.60;99.90;;;;;;4896316;29;20118;-84
2024/01/23 06:06:24;;;;;;;23.90;5.35;;;6.60;99.90;;;;;;4921382;29;20048;-84
2024/01/23 06:08:50;;;;;;;23.52;4.75;;;6.60;99.90;;;;;;4918357;29;20048;-85
2024/01/23 06:11:15;;;;;;;25.83;5.25;;;6.60;99.90;;;;;;4920505;29;20046;-84
2024/01/23 06:13:41;;;;;;;23.70;4.78;;;6.60;99.90;;;;;;4914900;29;20062;-84
2024/01/23 06:16:07;;;;;;;28.75;5.00;;;6.60;99.90;;;;;;4915871;29;20047;-83
2024/01/23 06:18:32;;;;;;;27.27;4.72;;;6.60;99.90;;;;;;4899959;29;20147;-84
2024/01/23 06:20:58;;;;;;;32.50;5.47;;;6.60;99.90;;;;;;4918842;29;20040;-84
2024/01/23 06:23:24;;;;;;;27.88;5.07;;;6.60;99.90;;;;;;4914398;29;20075;-84
2024/01/23 06:25:50;;;;;;;26.73;4.53;;;6.70;99.90;;;;;;4920364;29;20123;-84
2024/01/23 06:28:16;;;;;;;32.83;5.78;;;6.60;99.90;;;;;;4898967;29;20091;-84
2024/01/23 06:30:42;;;;;;;38.15;6.22;;;6.60;99.90;;;;;;4896997;29;20036;-83
2024/01/23 06:33:08;;;;;;;25.77;5.03;;;6.70;99.90;;;;;;4915153;29;20051;-83
2024/01/23 06:35:34;;;;;;;32.72;5.15;;;6.70;99.90;;;;;;4895644;29;20032;-84
2024/01/23 06:37:59;;;;;;;24.25;4.80;;;6.70;99.90;;;;;;4912748;29;20127;-83
2024/01/23 06:40:25;;;;;;;27.65;5.85;;;6.70;99.90;;;;;;4899497;29;20044;-83
2024/01/23 06:42:50;;;;;;;26.42;5.70;;;6.70;99.90;;;;;;4894511;29;20047;-83
2024/01/23 06:45:16;;;;;;;29.20;5.57;;;6.70;99.90;;;;;;4910270;29;20068;-83
2024/01/23 06:47:42;;;;;;;27.27;5.30;;;6.70;99.90;;;;;;4917883;29;20048;-83
2024/01/23 06:50:08;;;;;;;26.52;5.00;;;6.70;99.90;;;;;;4914826;29;20068;-83
2024/01/23 06:52:34;;;;;;;22.20;4.80;;;6.70;99.90;;;;;;4917627;29;20044;-83
2024/01/23 06:54:59;;;;;;;24.30;5.05;;;6.70;99.90;;;;;;4875831;29;20367;-82
2024/01/23 06:57:25;;;;;;;27.85;5.55;;;6.70;99.90;;;;;;4913741;29;20143;-83
2024/01/23 06:59:50;;;;;;;27.10;4.40;;;6.70;99.90;;;;;;4894088;29;20327;-83
2024/01/23 07:02:16;;;;;;;26.40;5.70;;;6.70;99.90;;;;;;4891983;29;20053;-83
2024/01/23 07:04:42;;;;;;;24.23;4.72;;;6.80;99.90;;;;;;4910855;29;20103;-83
2024/01/23 07:07:08;;;;;;;30.05;6.07;;;6.70;99.90;;;;;;4897061;29;20051;-82
2024/01/23 07:09:34;;;;;;;27.30;5.15;;;6.70;99.90;;;;;;4878038;29;20154;-83
2024/01/23 07:12:00;;;;;;;26.10;5.18;;;6.70;99.90;;;;;;4883868;29;20088;-81
2024/01/23 07:14:25;;;;;;;32.67;5.25;;;6.70;99.90;;;;;;4911216;29;20040;-83
2024/01/23 07:16:51;;;;;;;29.25;5.70;;;6.70;99.90;;;;;;4907393;29;20116;-81
2024/01/23 07:19:17;;;;;;;27.63;5.03;;;6.70;99.90;;;;;;4909865;29;20130;-82
2024/01/23 07:21:42;;;;;;;26.08;5.22;;;6.60;99.90;;;;;;4914082;29;20296;-82
2024/01/23 07:24:08;;;;;;;30.90;5.05;;;6.60;99.90;;;;;;4896189;29;20059;-83
2024/01/23 07:26:34;;;;;;;31.55;6.03;;;6.60;99.90;;;;;;4898712;29;20044;-83
2024/01/23 07:28:59;;;;;;;26.35;5.20;;;6.70;99.90;;;;;;4893446;29;20554;-83
2024/01/23 07:31:25;;;;;;;26.73;5.47;;;6.60;99.90;;;;;;4910745;29;20040;-82
2024/01/23 07:33:50;;;;;;;32.90;6.15;;;6.60;99.90;;;;;;4905902;29;20127;-82
2024/01/23 07:36:16;;;;;;;31.73;5.57;;;6.60;99.90;;;;;;4889616;29;20047;-82
2024/01/23 07:38:41;;;;;;;28.38;5.28;;;6.60;99.90;;;;;;4905278;29;20092;-82
2024/01/23 07:41:07;;;;;;;31.85;5.15;;;6.60;99.90;;;;;;4907379;29;20047;-82
2024/01/23 07:43:33;;;;;;;32.47;5.43;;;6.70;99.90;;;;;;4908848;29;20199;-82
2024/01/23 07:45:59;;;;;;;26.90;5.22;;;6.70;99.90;;;;;;4910140;29;20051;-82
2024/01/23 07:48:24;;;;;;;32.53;5.90;;;6.60;99.90;;;;;;4917125;29;20063;-85
2024/01/23 07:50:50;;;;;;;32.33;5.38;;;6.60;99.90;;;;;;4921862;29;20085;-84
2024/01/23 07:53:16;;;;;;;29.75;5.47;;;6.60;99.90;;;;;;4912648;29;20047;-85
2024/01/23 07:55:41;;;;;;;30.55;6.35;;;6.50;99.90;;;;;;4892698;29;20069;-85
2024/01/23 07:58:08;;;;;;;25.40;5.18;;;6.40;99.90;;;;;;4897576;29;20067;-85
2024/01/23 08:00:34;;;;;;;35.65;6.35;;;6.40;99.90;;;;;;4910399;29;20052;-84
2024/01/23 08:03:00;;;;;;;28.58;5.53;;;6.40;99.90;;;;;;4895842;29;20044;-81
2024/01/23 08:05:25;;;;;;;28.50;6.18;;;6.30;99.90;;;;;;4906233;29;20494;-80
2024/01/23 08:07:51;;;;;;;24.67;5.28;;;6.20;99.90;;;;;;4905604;29;20040;-78
2024/01/23 08:10:16;;;;;;;27.80;5.60;;;6.20;99.90;;;;;;4910222;29;20140;-79
2024/01/23 08:12:42;;;;;;;31.90;5.78;;;6.10;99.90;;;;;;4907809;29;20044;-80
2024/01/23 08:15:08;;;;;;;28.83;5.35;;;6.10;99.90;;;;;;4906742;29;20052;-80
2024/01/23 08:17:33;;;;;;;31.08;5.70;;;6.10;99.90;;;;;;4909279;29;20039;-79
2024/01/23 08:19:59;;;;;;;32.05;5.55;;;6.10;99.90;;;;;;4891797;29;20147;-80
2024/01/23 08:22:25;;;;;;;29.52;5.22;;;6.10;99.90;;;;;;4891328;29;20439;-80
2024/01/23 08:24:51;;;;;;;25.60;5.38;;;6.00;99.90;;;;;;4893339;29;20051;-80
2024/01/23 08:27:17;;;;;;;23.77;5.18;;;6.00;99.90;;;;;;4890917;29;20059;-81
2024/01/23 08:29:44;;;;;;;33.60;5.60;;;6.00;99.90;;;;;;4910080;29;20048;-81
2024/01/23 08:32:10;;;;;;;29.77;5.88;;;6.00;99.90;;;;;;4906733;29;20286;-80
2024/01/23 08:34:35;;;;;;;31.52;5.80;;;6.10;99.90;;;;;;4910683;29;20516;-80
2024/01/23 08:37:02;;;;;;;25.45;5.03;;;6.10;99.90;;;;;;4891997;29;20136;-80
2024/01/23 08:39:27;;;;;;;30.35;6.00;;;6.00;99.90;;;;;;4906927;29;20052;-81
2024/01/23 08:41:53;;;;;;;28.13;4.82;;;6.00;99.90;;;;;;4915918;29;20036;-81
2024/01/23 08:44:21;;;;;;;34.40;6.25;;;6.10;99.90;;;;;;4892906;29;20051;-80
2024/01/23 08:46:47;;;;;;;33.10;6.53;;;6.10;99.90;;;;;;4902440;29;20048;-80
2024/01/23 08:49:12;;;;;;;26.83;5.90;;;6.10;99.90;;;;;;4902068;29;20407;-80
2024/01/23 08:51:38;;;;;;;34.42;5.40;;;6.10;99.90;;;;;;4905361;29;20055;-80
2024/01/23 08:54:04;;;;;;;38.03;5.97;;;6.10;99.90;;;;;;4919298;29;20438;-80
2024/01/23 08:56:30;;;;;;;28.00;4.93;;;6.20;99.90;;;;;;4920853;29;20131;-80
2024/01/23 08:58:56;;;;;;;26.58;5.10;;;6.20;99.90;;;;;;4903478;29;20064;-80
2024/01/23 09:01:22;;;;;;;29.27;4.70;;;6.20;99.90;;;;;;4903745;29;20425;-80
2024/01/23 09:03:47;;;;;;;34.45;5.65;;;6.20;99.90;;;;;;4915048;29;20410;-80
2024/01/23 09:06:13;;;;;;;28.33;5.82;;;6.30;99.90;;;;;;4902814;29;20051;-80
2024/01/23 09:08:44;;;;;;;24.75;5.45;;;6.30;99.90;;;;;;4915633;29;20064;-80
2024/01/23 09:11:10;;;;;;;34.40;5.93;;;6.30;99.90;;;;;;4917917;29;20044;-81
2024/01/23 09:13:36;;;;;;;26.38;5.28;;;6.40;99.90;;;;;;4924270;29;20044;-80
2024/01/23 09:16:02;;;;;;;29.20;5.55;;;6.40;99.90;;;;;;4902328;29;20075;-80
2024/01/23 09:18:28;;;;;;;33.22;5.68;;;6.40;99.90;;;;;;4902781;29;20043;-80
2024/01/23 09:20:56;;;;;;;34.00;5.20;;;6.40;99.90;;;;;;4918865;29;20048;-80
2024/01/23 09:23:22;;;;;;;33.80;5.65;;;6.50;99.90;;;;;;4917907;29;20056;-79
2024/01/23 09:25:48;;;;;;;32.45;6.47;;;6.50;99.90;;;;;;4903143;29;20051;-80
2024/01/23 09:28:15;;;;;;;26.25;5.78;;;6.50;99.90;;;;;;4927833;29;20060;-80
2024/01/23 09:30:40;;;;;;;31.52;5.90;;;6.50;99.90;;;;;;4923948;29;20178;-80
2024/01/23 09:33:06;;;;;;;29.60;5.50;;;6.60;99.90;;;;;;4927685;29;20040;-80
2024/01/23 09:35:33;;;;;;;28.65;5.10;;;6.60;99.90;;;;;;4928808;29;20050;-80
2024/01/23 09:37:58;;;;;;;29.48;5.10;;;6.60;99.90;;;;;;4928878;29;20043;-79
2024/01/23 09:40:24;;;;;;;35.10;6.40;;;6.70;99.90;;;;;;4917223;29;20407;-79
2024/01/23 09:42:55;;;;;;;30.88;6.57;;;6.70;99.90;;;;;;4902420;29;20051;-80
2024/01/23 09:45:27;;;;;;;37.47;5.82;;;6.80;99.90;;;;;;4922807;29;20037;-80
2024/01/23 09:47:52;;;;;;;31.52;5.38;;;6.80;99.90;;;;;;4924966;29;21833;-80
2024/01/23 09:50:18;;;;;;;28.35;4.72;;;6.90;99.90;;;;;;4918597;29;20044;-80
2024/01/23 09:52:48;;;;;;;29.77;5.25;;;6.90;99.90;;;;;;4923205;29;20043;-80
2024/01/23 09:55:14;;;;;;;28.63;4.95;;;7.00;99.90;;;;;;4906940;29;20055;-80
2024/01/23 09:57:42;;;;;;;28.75;6.18;;;7.00;99.90;;;;;;4910533;29;20048;-80
2024/01/23 10:00:11;;;;;;;27.20;5.15;;;;;;;;;;4906087;29;20092;-81
2024/01/23 10:02:39;;;;;;;28.92;5.15;;;7.10;99.90;;;;;;4931311;29;20059;-80
2024/01/23 10:05:09;;;;;;;33.28;4.95;;;7.20;99.90;;;;;;4936970;29;20203;-80
2024/01/23 10:07:39;;;;;;;33.42;5.20;;;7.30;99.90;;;;;;4922964;29;20382;-81
2024/01/23 10:10:18;;;;;;;32.05;5.22;;;7.30;99.90;;;;;;4922918;29;20062;-81
2024/01/23 10:12:48;;;;;;;34.92;6.03;;;7.40;99.90;;;;;;4923712;29;20374;-80
2024/01/23 10:15:21;;;;;;;23.10;5.05;;;7.40;99.90;;;;;;4923235;29;20044;-80
2024/01/23 10:17:49;;;;;;;27.48;4.93;;;7.40;99.90;;;;;;4886108;29;20056;-81
2024/01/23 10:20:15;;;;;;;30.48;5.72;;;7.40;99.90;;;;;;4918893;29;20070;-80
2024/01/23 10:22:43;;;;;;;26.73;5.10;;;7.50;99.90;;;;;;4923630;29;20051;-80
2024/01/23 10:25:11;;;;;;;29.38;5.35;;;7.50;99.90;;;;;;4923029;29;20052;-80
2024/01/23 10:27:37;;;;;;;22.02;4.78;;;7.50;99.90;;;;;;4902841;29;20428;-80
2024/01/23 10:30:03;;;;;;;32.55;5.25;;;7.50;99.90;;;;;;4885823;29;20045;-80
2024/01/23 10:32:32;;;;;;;23.23;5.50;;;7.50;99.90;;;;;;4906455;29;20040;-80
2024/01/23 10:34:57;;;;;;;32.88;5.70;;;7.50;99.90;;;;;;4923126;29;20119;-81
2024/01/23 10:37:23;;;;;;;26.33;5.90;;;7.50;99.90;;;;;;4923544;29;21018;-81
2024/01/23 10:39:50;;;;;;;29.05;5.50;;;7.50;99.90;;;;;;4915610;29;20056;-80
2024/01/23 10:42:17;;;;;;;29.85;5.28;;;7.60;99.90;;;;;;4915283;29;20059;-81
2024/01/23 10:44:44;;;;;;;29.70;5.43;;;7.50;99.90;;;;;;4935568;29;20043;-80
2024/01/23 10:47:12;;;;;;;21.13;5.17;;;7.50;99.90;;;;;;4925360;29;20055;-80
2024/01/23 10:49:38;;;;;;;;;;;7.50;99.90;;;;;;4914912;29;20115;-80
2024/01/23 10:52:05;;;;;;;26.33;5.57;;;7.50;99.90;;;;;;4904286;29;19996;-80
2024/01/23 10:54:35;;;;;;;29.77;5.20;;;7.60;99.90;;;;;;4919068;29;20123;-80
2024/01/23 10:57:04;;;;;;;27.27;5.55;;;7.70;99.90;;;;;;4923190;29;20075;-79
2024/01/23 10:59:31;;;;;;;30.15;5.50;;;7.50;99.90;;;;;;4900586;29;20435;-80
2024/01/23 11:02:05;;;;;;;30.25;5.50;;;7.60;99.90;;;;;;4921185;29;20048;-80
2024/01/23 11:04:31;;;;;;;30.98;5.05;;;7.70;99.90;;;;;;4919788;29;20035;-81
2024/01/23 11:07:23;;;;;;;28.15;5.35;;;7.70;99.90;;;;;;4893279;29;20050;-80
2024/01/23 11:10:06;;;;;;;24.33;4.43;;;7.70;99.90;;;;;;4922902;29;20083;-80
2024/01/23 11:12:42;;;;;;;25.60;5.40;;;7.80;99.90;;;;;;4923253;29;20043;-80
2024/01/23 11:15:15;;;;;;;25.52;5.38;;;7.90;99.90;;;;;;4919276;29;20036;-80
2024/01/23 11:17:41;;;;;;;28.73;4.63;;;8.00;99.90;;;;;;4926812;29;20044;-80
2024/01/23 11:20:09;;;;;;;30.70;5.07;;;8.10;99.90;;;;;;4930402;29;20055;-80
2024/01/23 11:22:36;;;;;;;34.15;5.13;;;8.10;99.90;;;;;;4931629;29;20056;-81
2024/01/23 11:25:03;;;;;;;24.88;5.35;;;8.30;99.90;;;;;;4922149;29;20142;-80
2024/01/23 11:27:30;;;;;;;27.17;4.93;;;;;;;;;;4901138;29;20498;-81
2024/01/23 11:29:58;;;;;;;33.50;6.30;;;8.50;99.90;;;;;;4922525;29;20394;-80
2024/01/23 11:32:25;;;;;;;25.77;5.10;;;8.70;99.90;;;;;;4920568;29;20064;-81
2024/01/23 11:35:01;;;;;;;29.83;5.17;;;8.80;99.90;;;;;;4915699;29;20451;-80
2024/01/23 11:37:33;;;;;;;30.73;6.15;;;8.90;99.90;;;;;;4900113;29;20063;-81
2024/01/23 11:39:59;;;;;;;26.27;5.30;;;9.00;99.90;;;;;;4903443;29;20052;-81
2024/01/23 11:42:36;;;;;;;26.52;4.82;;;9.10;99.90;;;;;;4919844;29;20096;-78
2024/01/23 11:45:27;;;;;;;24.20;4.83;;;9.20;99.90;;;;;;4912686;29;20067;-81
2024/01/23 11:48:02;;;;;;;27.77;5.22;;;9.10;99.90;;;;;;4917385;29;20048;-81
2024/01/23 11:50:29;;;;;;;27.80;5.10;;;9.00;99.90;;;;;;4919921;29;20040;-79
2024/01/23 11:52:57;;;;;;;29.05;4.70;;;9.00;99.90;;;;;;4904252;29;20554;-81
2024/01/23 11:55:23;;;;;;;26.83;4.90;;;9.00;99.90;;;;;;4925001;29;20060;-81
2024/01/23 11:57:50;;;;;;;29.52;5.68;;;8.90;99.90;;;;;;4928099;29;20067;-81
2024/01/23 12:00:18;;;;;;;29.83;5.72;;;8.90;99.90;;;;;;4918478;29;20080;-81
2024/01/23 12:02:44;;;;;;;25.75;5.32;;;8.90;99.90;;;;;;4919375;29;20052;-80
2024/01/23 12:05:11;;;;;;;25.48;5.63;;;8.80;99.90;;;;;;4919562;29;20056;-81
2024/01/23 12:07:39;;;;;;;28.08;5.15;;;8.90;99.90;;;;;;4923929;29;20402;-81
2024/01/23 12:10:08;;;;;;;;;;;8.90;99.90;;;;;;4919855;29;20040;-80
2024/01/23 12:12:34;;;;;;;25.30;5.07;;;8.80;99.90;;;;;;4920391;29;19930;-80
2024/01/23 12:14:59;;;;;;;23.63;4.68;;;8.80;99.90;;;;;;4919172;29;20040;-82
2024/01/23 12:17:25;;;;;;;23.83;5.03;;;8.80;99.90;;;;;;4916179;29;20154;-80
2024/01/23 12:19:51;;;;;;;24.58;4.97;;;8.80;99.90;;;;;;4921342;29;20060;-80
2024/01/23 12:22:18;;;;;;;24.20;5.00;;;8.80;99.90;;;;;;4918329;29;20122;-80
2024/01/23 12:24:44;;;;;;;29.45;5.40;;;8.90;99.90;;;;;;4902483;29;20041;-80
2024/01/23 12:27:11;;;;;;;25.70;5.35;;;8.80;99.90;;;;;;4918074;29;20095;-80
2024/01/23 12:29:41;;;;;;;29.33;5.20;;;8.80;99.90;;;;;;4900976;29;20060;-80
2024/01/23 12:32:10;;;;;;;27.73;5.18;;;8.80;99.90;;;;;;4917741;29;20052;-81
2024/01/23 12:34:36;;;;;;;28.40;5.55;;;8.80;99.90;;;;;;4884999;29;20051;-81
2024/01/23 12:37:03;;;;;;;36.25;5.40;;;8.90;99.90;;;;;;4924599;29;20044;-81
2024/01/23 12:39:29;;;;;;;28.60;5.73;;;8.90;99.90;;;;;;4937417;29;20043;-81
2024/01/23 12:41:56;;;;;;;21.65;4.43;;;8.90;99.90;;;;;;4907582;29;20307;-81
2024/01/23 12:44:21;;;;;;;27.83;5.25;;;8.90;99.90;;;;;;4880011;29;20044;-82